Time;durP1;ratioP1;P1;durP2;ratioP2;P2;SDS_P1;SDS_P2;PMS_P1;PMS_P2;Temp;Humidity;BMP_temperature;BMP_pressure;BME280_temperature;BME280_humidity;BME280_pressure;Samples;Min_cycle;Max_cycle;Signal;HPM_P1;HPM_P2
2022/06/08 00:00:44;;;;;;;12.63;11.15;;;17.10;99.90;;;;;;4946776;28;20032;-36
2022/06/08 00:03:15;;;;;;;12.52;11.02;;;17.10;99.90;;;;;;4948343;28;20035;-36
2022/06/08 00:05:41;;;;;;;13.00;11.57;;;17.00;99.90;;;;;;4947537;28;20027;-35
2022/06/08 00:08:07;;;;;;;13.25;10.75;;;17.00;99.90;;;;;;4947337;28;20030;-36
2022/06/08 00:10:33;;;;;;;12.13;11.02;;;17.00;99.90;;;;;;4947693;29;20034;-35
2022/06/08 00:12:58;;;;;;;11.50;10.27;;;17.00;99.90;;;;;;4947643;29;20020;-35
2022/06/08 00:15:25;;;;;;;11.55;10.40;;;17.00;99.90;;;;;;4946894;29;20038;-35
2022/06/08 00:17:51;;;;;;;13.48;10.77;;;16.90;99.90;;;;;;4947645;28;20546;-35
2022/06/08 00:20:17;;;;;;;12.07;10.88;;;16.90;99.90;;;;;;4947755;28;20035;-39
2022/06/08 00:22:44;;;;;;;12.02;10.70;;;16.90;99.90;;;;;;4950696;29;20482;-35
2022/06/08 00:25:11;;;;;;;16.85;11.80;;;16.90;99.90;;;;;;4951665;29;20019;-36
2022/06/08 00:27:37;;;;;;;14.13;12.18;;;16.90;99.90;;;;;;4950272;28;20496;-35
2022/06/08 00:30:06;;;;;;;11.85;10.73;;;16.90;99.90;;;;;;4951346;28;20027;-35
2022/06/08 00:32:31;;;;;;;12.20;10.95;;;16.90;99.90;;;;;;4950796;28;20035;-35
2022/06/08 00:34:57;;;;;;;11.65;10.52;;;16.90;99.90;;;;;;4951178;29;20023;-36
2022/06/08 00:37:24;;;;;;;11.63;10.43;;;16.80;99.90;;;;;;4951502;28;20024;-36
2022/06/08 00:39:49;;;;;;;12.88;11.55;;;16.90;99.90;;;;;;4951620;28;20035;-36
2022/06/08 00:42:16;;;;;;;12.82;11.48;;;16.90;99.90;;;;;;4949783;29;20032;-38
2022/06/08 00:44:51;;;;;;;13.05;11.65;;;16.80;99.90;;;;;;4951167;28;20025;-36
2022/06/08 00:47:24;;;;;;;13.23;11.27;;;16.90;99.90;;;;;;4951141;28;20996;-35
2022/06/08 00:49:58;;;;;;;11.95;10.52;;;16.80;99.90;;;;;;4950747;28;20351;-36
2022/06/08 00:52:26;;;;;;;13.02;11.63;;;16.80;99.90;;;;;;4950397;28;20511;-37
2022/06/08 00:54:57;;;;;;;11.32;10.23;;;16.90;99.90;;;;;;4951170;28;20031;-35
2022/06/08 00:57:33;;;;;;;13.13;11.70;;;16.90;99.90;;;;;;4950310;28;20078;-36
2022/06/08 01:00:27;;;;;;;12.52;11.20;;;16.90;99.90;;;;;;4950017;29;20156;-35
2022/06/08 01:02:53;;;;;;;14.77;11.45;;;16.90;99.90;;;;;;4944708;29;20051;-35
2022/06/08 01:05:21;;;;;;;11.80;10.60;;;16.90;99.90;;;;;;4950995;28;20027;-34
2022/06/08 01:07:50;;;;;;;12.65;11.35;;;17.00;99.90;;;;;;4950800;28;20094;-35
2022/06/08 01:10:20;;;;;;;12.18;10.93;;;17.00;99.90;;;;;;4947193;29;20487;-36
2022/06/08 01:12:46;;;;;;;13.68;11.55;;;17.00;99.90;;;;;;4951060;28;20019;-35
2022/06/08 01:15:16;;;;;;;12.35;11.15;;;17.00;99.90;;;;;;4951314;28;20077;-35
2022/06/08 01:17:41;;;;;;;13.35;11.95;;;17.10;99.90;;;;;;4950131;28;20086;-36
2022/06/08 01:20:10;;;;;;;13.40;11.75;;;17.10;99.90;;;;;;4950106;29;20035;-35
2022/06/08 01:22:36;;;;;;;13.80;12.38;;;17.10;99.90;;;;;;4950841;28;20591;-36
2022/06/08 01:25:03;;;;;;;11.40;10.20;;;17.10;99.90;;;;;;4950215;28;20027;-35
2022/06/08 01:28:04;;;;;;;13.65;11.20;;;17.10;99.90;;;;;;4950472;28;20029;-36
2022/06/08 01:30:58;;;;;;;14.10;11.77;;;17.00;99.90;;;;;;4946805;29;20036;-36
2022/06/08 01:33:35;;;;;;;14.75;12.30;;;17.00;99.90;;;;;;4949098;28;20023;-38
2022/06/08 01:36:01;;;;;;;14.25;12.43;;;16.90;99.90;;;;;;4949982;29;20085;-35
2022/06/08 01:38:40;;;;;;;15.30;12.38;;;16.90;99.90;;;;;;4949526;28;20034;-36
2022/06/08 01:41:25;;;;;;;13.65;11.77;;;16.90;99.90;;;;;;4950394;29;20023;-35
2022/06/08 01:43:56;;;;;;;12.82;11.52;;;16.90;99.90;;;;;;4950468;29;20495;-36
2022/06/08 01:46:32;;;;;;;14.27;11.70;;;17.00;99.90;;;;;;4948619;29;20034;-37
2022/06/08 01:49:22;;;;;;;14.38;12.77;;;16.90;99.90;;;;;;4950785;28;20271;-35
2022/06/08 01:52:41;;;;;;;14.18;12.68;;;17.00;99.90;;;;;;4947320;29;20057;-35
2022/06/08 01:55:35;;;;;;;16.70;13.68;;;17.00;99.90;;;;;;4893882;29;20568;-35
2022/06/08 01:58:14;;;;;;;14.80;12.98;;;17.00;99.90;;;;;;4949212;28;20139;-35
2022/06/08 02:00:46;;;;;;;14.90;13.30;;;17.00;99.90;;;;;;4948789;28;20027;-36
2022/06/08 02:03:21;;;;;;;13.43;11.55;;;17.00;99.90;;;;;;4950467;28;20218;-36
2022/06/08 02:05:49;;;;;;;14.10;12.70;;;17.00;99.90;;;;;;4949321;29;20070;-35
2022/06/08 02:08:43;;;;;;;13.00;11.68;;;17.00;99.90;;;;;;4948963;29;20039;-35
2022/06/08 02:11:19;;;;;;;15.60;13.23;;;17.00;99.90;;;;;;4942941;29;20146;-33
2022/06/08 02:13:51;;;;;;;13.63;12.25;;;17.00;99.90;;;;;;4948941;28;20655;-37
2022/06/08 02:16:29;;;;;;;14.60;12.63;;;17.00;99.90;;;;;;4949249;28;20061;-36
2022/06/08 02:19:24;;;;;;;14.65;13.10;;;17.10;99.90;;;;;;4950227;28;20045;-35
2022/06/08 02:22:15;;;;;;;15.25;12.90;;;17.10;99.90;;;;;;4948665;29;20395;-35
2022/06/08 02:24:46;;;;;;;14.38;12.85;;;17.10;99.90;;;;;;4930276;29;20184;-37
2022/06/08 02:27:22;;;;;;;14.48;12.65;;;17.20;99.90;;;;;;4945972;29;20495;-34
2022/06/08 02:29:59;;;;;;;13.45;12.05;;;17.10;99.90;;;;;;4930668;29;20028;-36
2022/06/08 02:35:30;;;;;;;17.63;14.10;;;17.10;99.90;;;;;;4948786;29;20082;-35
2022/06/08 02:38:09;;;;;;;17.77;14.30;;;17.00;99.90;;;;;;4949287;28;20029;-35
2022/06/08 02:40:39;;;;;;;16.40;13.95;;;17.00;99.90;;;;;;4949205;28;20023;-36
2022/06/08 02:43:25;;;;;;;15.35;13.75;;;17.00;99.90;;;;;;4947824;28;20499;-35
2022/06/08 02:46:04;;;;;;;15.93;14.27;;;16.90;99.90;;;;;;4949120;28;20031;-35
2022/06/08 02:48:32;;;;;;;16.20;14.43;;;16.90;99.90;;;;;;4947977;29;20422;-35
2022/06/08 02:50:58;;;;;;;18.15;15.73;;;16.90;99.90;;;;;;4949857;28;20030;-36
2022/06/08 02:53:49;;;;;;;18.35;15.43;;;16.90;99.90;;;;;;4948108;28;20051;-36
2022/06/08 02:56:26;;;;;;;16.55;14.85;;;16.80;99.90;;;;;;4939243;29;20046;-35
2022/06/08 02:59:14;;;;;;;16.48;14.73;;;16.70;99.90;;;;;;4949109;28;20494;-34
2022/06/08 03:01:49;;;;;;;18.30;16.08;;;16.70;99.90;;;;;;4948654;28;20107;-34
2022/06/08 03:04:22;;;;;;;18.20;15.10;;;16.60;99.90;;;;;;4947859;28;20026;-36
2022/06/08 03:06:56;;;;;;;17.25;14.65;;;16.60;99.90;;;;;;4949169;28;20023;-37
2022/06/08 03:09:23;;;;;;;16.75;14.98;;;16.60;99.90;;;;;;4947493;28;20027;-35
2022/06/08 03:11:56;;;;;;;16.05;14.23;;;16.50;99.90;;;;;;4948818;28;20027;-35
2022/06/08 03:14:21;;;;;;;18.33;14.90;;;16.50;99.90;;;;;;4948280;28;20082;-37
2022/06/08 03:17:05;;;;;;;15.52;13.23;;;16.50;99.90;;;;;;4947662;29;20031;-36
2022/06/08 03:19:32;;;;;;;14.90;12.55;;;16.40;99.90;;;;;;4947598;29;20121;-35
2022/06/08 03:21:58;;;;;;;16.52;14.82;;;16.40;99.90;;;;;;4949025;28;20039;-35
2022/06/08 03:24:25;;;;;;;16.98;14.35;;;16.40;99.90;;;;;;4947171;28;20348;-34
2022/06/08 03:26:59;;;;;;;16.42;14.52;;;16.40;99.90;;;;;;4948776;28;20471;-35
2022/06/08 03:29:26;;;;;;;16.05;14.32;;;16.40;99.90;;;;;;4948126;28;20369;-35
2022/06/08 03:31:52;;;;;;;16.63;13.88;;;16.40;99.90;;;;;;4947956;28;20038;-34
2022/06/08 03:34:19;;;;;;;17.98;15.25;;;16.30;99.90;;;;;;4948473;28;20027;-36
2022/06/08 03:36:44;;;;;;;17.38;14.35;;;16.30;99.90;;;;;;4948239;28;20023;-37
2022/06/08 03:39:11;;;;;;;18.95;14.52;;;16.30;99.90;;;;;;4947415;29;20018;-36
2022/06/08 03:41:36;;;;;;;17.88;15.50;;;16.30;99.90;;;;;;4948013;28;20047;-36
2022/06/08 03:44:04;;;;;;;19.35;15.40;;;16.30;99.90;;;;;;4948349;28;20031;-35
2022/06/08 03:46:39;;;;;;;17.30;14.65;;;16.40;99.90;;;;;;4946488;28;20075;-37
2022/06/08 03:49:06;;;;;;;17.27;15.00;;;16.40;99.90;;;;;;4948368;28;20051;-36
2022/06/08 03:51:34;;;;;;;16.70;14.88;;;16.50;99.90;;;;;;4946744;28;20437;-38
2022/06/08 03:54:12;;;;;;;18.38;14.75;;;16.50;99.90;;;;;;4947791;28;20102;-36
2022/06/08 03:56:40;;;;;;;16.13;14.18;;;16.50;99.90;;;;;;4947388;28;20483;-36
2022/06/08 03:59:06;;;;;;;17.48;14.75;;;16.60;99.90;;;;;;4946867;28;20479;-36
2022/06/08 04:01:32;;;;;;;18.05;14.63;;;16.60;99.90;;;;;;4947835;28;20199;-37
2022/06/08 04:03:58;;;;;;;15.82;13.95;;;16.60;99.90;;;;;;4948333;28;20069;-36
2022/06/08 04:06:24;;;;;;;17.00;15.20;;;16.70;99.90;;;;;;4946803;29;20428;-35
2022/06/08 04:08:51;;;;;;;17.63;15.70;;;16.70;99.90;;;;;;4948267;29;20035;-35
2022/06/08 04:11:17;;;;;;;18.48;15.23;;;16.70;99.90;;;;;;4943817;29;20044;-36
2022/06/08 04:13:42;;;;;;;18.58;15.95;;;16.70;99.90;;;;;;4946765;29;20492;-36
2022/06/08 04:16:08;;;;;;;17.17;15.32;;;16.70;99.90;;;;;;4947641;29;20475;-35
2022/06/08 04:18:34;;;;;;;17.75;15.70;;;16.70;99.90;;;;;;4947278;29;20023;-36
2022/06/08 04:21:02;;;;;;;17.60;15.48;;;16.70;99.90;;;;;;4946925;29;20058;-36
2022/06/08 04:23:30;;;;;;;18.13;16.13;;;16.70;99.90;;;;;;4947474;28;20039;-36
2022/06/08 04:25:57;;;;;;;18.17;16.27;;;16.70;99.90;;;;;;4947458;28;20067;-35
2022/06/08 04:28:24;;;;;;;17.73;15.75;;;16.70;99.90;;;;;;4947224;28;20035;-36
2022/06/08 04:30:50;;;;;;;18.20;15.75;;;16.70;99.90;;;;;;4947717;28;20443;-36
2022/06/08 04:33:15;;;;;;;18.45;16.45;;;16.60;99.90;;;;;;4947448;28;20047;-34
2022/06/08 04:35:41;;;;;;;21.40;16.45;;;16.60;99.90;;;;;;4946569;28;20046;-35
2022/06/08 04:38:08;;;;;;;18.55;15.30;;;16.70;99.90;;;;;;4948001;28;20042;-34
2022/06/08 04:40:34;;;;;;;19.42;15.52;;;16.70;99.90;;;;;;4946579;28;20430;-35
2022/06/08 04:43:00;;;;;;;16.75;15.05;;;16.70;99.90;;;;;;4947733;28;20062;-35
2022/06/08 04:45:26;;;;;;;16.30;14.52;;;16.70;99.90;;;;;;4947287;29;20023;-35
2022/06/08 04:47:52;;;;;;;15.05;13.48;;;16.70;99.90;;;;;;4946657;28;20035;-36
2022/06/08 04:50:19;;;;;;;18.45;15.43;;;16.80;99.90;;;;;;4947466;28;20556;-35
2022/06/08 04:52:44;;;;;;;16.98;14.93;;;16.80;99.90;;;;;;4947617;28;20526;-35
2022/06/08 04:55:13;;;;;;;17.05;14.48;;;16.80;99.90;;;;;;4946850;28;20022;-35
2022/06/08 04:57:39;;;;;;;14.75;13.15;;;16.90;99.90;;;;;;4946819;28;20614;-35
2022/06/08 05:00:07;;;;;;;18.10;13.88;;;17.00;99.90;;;;;;4947582;28;20118;-37
2022/06/08 05:02:44;;;;;;;16.15;13.80;;;17.00;99.90;;;;;;4945894;28;20036;-35
2022/06/08 05:05:17;;;;;;;15.27;13.20;;;17.10;99.90;;;;;;4947600;29;20074;-35
2022/06/08 05:07:43;;;;;;;14.00;12.50;;;17.10;99.90;;;;;;4949283;28;20302;-35
2022/06/08 05:10:09;;;;;;;13.43;11.35;;;17.10;99.90;;;;;;4950114;29;20079;-34
2022/06/08 05:12:36;;;;;;;12.75;11.45;;;17.20;99.90;;;;;;4950381;28;20027;-35
2022/06/08 05:15:07;;;;;;;13.55;12.13;;;17.10;99.90;;;;;;4951322;28;20031;-35
2022/06/08 05:17:33;;;;;;;13.10;11.70;;;17.20;99.90;;;;;;4949867;28;20090;-36
2022/06/08 05:19:59;;;;;;;13.45;12.10;;;17.30;99.90;;;;;;4950834;28;20027;-36
2022/06/08 05:22:24;;;;;;;12.70;11.38;;;17.40;99.90;;;;;;4949586;28;20042;-37
2022/06/08 05:24:50;;;;;;;12.63;10.77;;;17.50;99.90;;;;;;4950051;28;20038;-35
2022/06/08 05:27:17;;;;;;;11.85;10.63;;;17.60;99.90;;;;;;4949872;28;20451;-36
2022/06/08 05:29:43;;;;;;;11.82;10.43;;;17.70;99.90;;;;;;4950667;28;20027;-35
2022/06/08 05:32:09;;;;;;;11.25;10.13;;;17.80;99.90;;;;;;4949908;28;20045;-35
2022/06/08 05:34:35;;;;;;;11.77;10.57;;;17.90;99.90;;;;;;4949751;29;20023;-35
2022/06/08 05:37:00;;;;;;;11.48;10.27;;;18.00;99.90;;;;;;4949787;29;20019;-34
2022/06/08 05:39:26;;;;;;;9.73;8.73;;;18.10;99.90;;;;;;4949257;28;20465;-35
2022/06/08 05:41:51;;;;;;;10.48;9.48;;;18.10;99.90;;;;;;4948242;29;20314;-36
2022/06/08 05:44:20;;;;;;;11.15;10.05;;;18.20;99.90;;;;;;4949270;28;20050;-35
2022/06/08 05:46:49;;;;;;;11.95;10.60;;;18.10;99.90;;;;;;4947684;28;20035;-36
2022/06/08 05:49:16;;;;;;;12.57;9.95;;;18.20;99.90;;;;;;4947858;29;20498;-34
2022/06/08 05:51:42;;;;;;;10.77;9.73;;;18.20;99.90;;;;;;4949181;28;20019;-37
2022/06/08 05:54:07;;;;;;;9.82;8.70;;;18.20;99.90;;;;;;4949204;28;20514;-35
2022/06/08 05:56:33;;;;;;;9.20;8.30;;;18.20;99.90;;;;;;4949522;29;20065;-35
2022/06/08 05:58:59;;;;;;;9.95;9.05;;;18.20;99.90;;;;;;4948150;28;20385;-35
2022/06/08 06:01:25;;;;;;;8.38;7.47;;;18.30;99.90;;;;;;4948576;29;20035;-36
2022/06/08 06:03:52;;;;;;;9.30;8.40;;;18.30;99.90;;;;;;4948208;29;20561;-36
2022/06/08 06:06:17;;;;;;;8.25;7.43;;;18.40;99.90;;;;;;4948384;28;20514;-36
2022/06/08 06:08:45;;;;;;;8.48;7.68;;;18.40;99.90;;;;;;4948180;28;20054;-36
2022/06/08 06:11:13;;;;;;;8.20;7.40;;;18.50;99.90;;;;;;4948974;28;20474;-35
2022/06/08 06:13:39;;;;;;;7.07;6.47;;;18.50;99.90;;;;;;4947567;28;20034;-35
2022/06/08 06:16:05;;;;;;;7.53;6.72;;;18.60;99.90;;;;;;4948792;28;20031;-36
2022/06/08 06:18:31;;;;;;;8.18;7.40;;;18.60;99.90;;;;;;4946913;28;20023;-35
2022/06/08 06:20:56;;;;;;;7.93;7.20;;;18.70;99.90;;;;;;4948652;29;20427;-36
2022/06/08 06:23:22;;;;;;;7.97;7.28;;;18.80;99.90;;;;;;4949148;29;20026;-35
2022/06/08 06:25:48;;;;;;;7.50;6.80;;;18.80;99.90;;;;;;4949950;28;20483;-36
2022/06/08 06:28:14;;;;;;;8.40;7.60;;;18.90;99.90;;;;;;4948438;29;20367;-40
2022/06/08 06:30:40;;;;;;;7.65;6.90;;;18.90;99.90;;;;;;4949341;29;20334;-36
2022/06/08 06:33:05;;;;;;;7.28;6.50;;;18.90;99.90;;;;;;4948909;28;20114;-34
2022/06/08 06:35:31;;;;;;;6.70;6.10;;;18.90;99.90;;;;;;4948392;28;20019;-36
2022/06/08 06:37:56;;;;;;;6.80;6.20;;;19.00;99.90;;;;;;4949718;29;20603;-37
2022/06/08 06:40:22;;;;;;;6.25;5.68;;;19.00;99.90;;;;;;4948111;29;20031;-36
2022/06/08 06:42:48;;;;;;;5.10;4.70;;;19.10;99.90;;;;;;4948607;29;20458;-36
2022/06/08 06:45:15;;;;;;;5.80;5.30;;;19.20;99.90;;;;;;4949285;28;20026;-36
2022/06/08 06:47:41;;;;;;;6.93;6.20;;;19.20;99.90;;;;;;4947942;29;20035;-36
2022/06/08 06:50:08;;;;;;;6.30;5.70;;;19.20;99.90;;;;;;4949697;28;20391;-35
2022/06/08 06:52:34;;;;;;;6.10;5.50;;;19.30;99.90;;;;;;4948714;29;20055;-37
2022/06/08 06:55:00;;;;;;;7.15;5.95;;;19.40;99.90;;;;;;4948139;29;20023;-37
2022/06/08 06:57:25;;;;;;;6.18;5.57;;;19.30;99.90;;;;;;4948264;29;20471;-36
2022/06/08 06:59:51;;;;;;;5.35;4.95;;;19.40;99.90;;;;;;4948447;29;20027;-35
2022/06/08 07:02:20;;;;;;;6.97;6.28;;;19.40;99.90;;;;;;4947417;28;20534;-35
2022/06/08 07:04:47;;;;;;;6.40;5.80;;;19.40;99.90;;;;;;4948468;29;20023;-34
2022/06/08 07:07:13;;;;;;;6.47;5.78;;;19.40;99.90;;;;;;4948514;29;20206;-36
2022/06/08 07:09:39;;;;;;;5.65;5.15;;;19.40;99.90;;;;;;4947054;29;20034;-38
2022/06/08 07:12:06;;;;;;;4.20;3.90;;;19.50;99.90;;;;;;4947982;28;20413;-36
2022/06/08 07:14:32;;;;;;;5.35;4.60;;;19.50;99.90;;;;;;4947709;28;20043;-35
2022/06/08 07:16:58;;;;;;;4.63;4.20;;;19.50;99.90;;;;;;4947477;28;20504;-36
2022/06/08 07:19:24;;;;;;;4.72;4.32;;;19.50;99.90;;;;;;4947760;28;20110;-36
2022/06/08 07:21:50;;;;;;;5.43;4.53;;;19.60;99.90;;;;;;4947782;28;20490;-37
2022/06/08 07:24:19;;;;;;;5.78;4.68;;;19.60;99.90;;;;;;4947254;28;20078;-36
2022/06/08 07:26:45;;;;;;;5.88;5.30;;;19.60;99.90;;;;;;4948136;28;20499;-35
2022/06/08 07:29:11;;;;;;;5.80;4.60;;;19.50;99.90;;;;;;4948586;28;20494;-36
2022/06/08 07:31:37;;;;;;;5.00;4.50;;;19.50;99.90;;;;;;4945865;28;20066;-38
2022/06/08 07:34:02;;;;;;;5.78;5.28;;;19.50;99.90;;;;;;4948797;29;20059;-36
2022/06/08 07:36:28;;;;;;;4.50;4.10;;;19.50;99.90;;;;;;4946990;29;20090;-36
2022/06/08 07:38:54;;;;;;;5.43;4.28;;;19.50;99.90;;;;;;4948113;29;20038;-37
2022/06/08 07:41:19;;;;;;;4.75;4.35;;;19.60;99.90;;;;;;4947601;29;20122;-36
2022/06/08 07:43:45;;;;;;;5.18;4.05;;;19.60;99.90;;;;;;4947283;29;20343;-35
2022/06/08 07:46:10;;;;;;;3.70;3.40;;;19.70;99.90;;;;;;4948361;29;20027;-35
2022/06/08 07:51:21;;;;;;;3.97;3.58;;;19.90;99.90;;;;;;4947894;29;20150;-36
2022/06/08 07:53:46;;;;;;;4.22;3.83;;;19.90;99.90;;;;;;4947582;28;20497;-36
2022/06/08 07:56:12;;;;;;;3.85;3.38;;;20.00;99.90;;;;;;4948264;29;20027;-36
2022/06/08 07:58:38;;;;;;;3.40;3.10;;;20.00;99.90;;;;;;4947177;28;20023;-35
2022/06/08 08:01:05;;;;;;;3.33;3.03;;;20.00;99.90;;;;;;4947642;28;20106;-36
2022/06/08 08:03:31;;;;;;;3.05;2.72;;;20.10;99.90;;;;;;4945324;28;20034;-36
2022/06/08 08:05:57;;;;;;;3.03;2.70;;;20.10;99.90;;;;;;4946422;29;20039;-36
2022/06/08 08:08:26;;;;;;;3.35;2.80;;;20.10;99.90;;;;;;4945812;29;20089;-36
2022/06/08 08:10:52;;;;;;;2.60;2.40;;;20.20;99.90;;;;;;4946157;29;20042;-35
2022/06/08 08:13:17;;;;;;;3.42;3.10;;;20.40;99.90;;;;;;4944822;28;20078;-35
2022/06/08 08:15:44;;;;;;;3.90;2.80;;;20.50;99.90;;;;;;4947647;29;20395;-37
2022/06/08 08:18:10;;;;;;;4.85;2.95;;;20.70;99.90;;;;;;4947600;29;20467;-37
2022/06/08 08:20:36;;;;;;;3.25;2.08;;;20.80;99.90;;;;;;4944313;28;20086;-37
2022/06/08 08:23:03;;;;;;;5.22;3.38;;;21.00;99.90;;;;;;4947747;28;20043;-34
2022/06/08 08:25:29;;;;;;;2.88;2.55;;;21.10;99.90;;;;;;4946878;28;20027;-36
2022/06/08 08:27:55;;;;;;;3.72;2.40;;;21.20;99.90;;;;;;4946576;29;20024;-36
2022/06/08 08:30:24;;;;;;;3.25;2.10;;;21.30;99.90;;;;;;4947481;28;20030;-37
2022/06/08 08:32:50;;;;;;;3.95;2.28;;;21.40;99.90;;;;;;4947895;28;20024;-35
2022/06/08 08:35:16;;;;;;;3.75;2.38;;;21.40;99.90;;;;;;4947487;29;20470;-37
2022/06/08 08:37:44;;;;;;;4.53;2.53;;;21.60;99.90;;;;;;4947273;28;20511;-37
2022/06/08 08:40:35;;;;;;;1.80;1.70;;;21.70;99.90;;;;;;4947249;28;20024;-36
2022/06/08 08:43:01;;;;;;;4.13;2.78;;;21.80;99.90;;;;;;4950618;28;20122;-38
2022/06/08 08:45:31;;;;;;;4.38;3.00;;;21.80;99.90;;;;;;4951020;28;20364;-36
2022/06/08 08:48:09;;;;;;;2.88;2.50;;;21.80;99.90;;;;;;4951049;28;20648;-37
2022/06/08 08:50:37;;;;;;;2.90;2.30;;;21.80;99.90;;;;;;4950183;29;20449;-35
2022/06/08 08:53:07;;;;;;;3.38;2.55;;;21.80;99.90;;;;;;4951095;28;20055;-37
2022/06/08 08:55:51;;;;;;;2.83;2.35;;;21.80;99.90;;;;;;4949676;28;20538;-37
2022/06/08 08:58:22;;;;;;;2.90;1.92;;;21.80;99.90;;;;;;4951424;29;20081;-36
2022/06/08 09:00:49;;;;;;;3.15;2.20;;;21.80;99.90;;;;;;4950404;28;20024;-38
2022/06/08 09:03:20;;;;;;;3.13;2.10;;;21.70;99.90;;;;;;4950906;29;20046;-34
2022/06/08 09:05:49;;;;;;;3.42;2.75;;;21.60;99.90;;;;;;4950823;28;20023;-36
2022/06/08 09:08:16;;;;;;;5.10;2.95;;;21.50;99.90;;;;;;4950556;28;20031;-36
2022/06/08 09:10:43;;;;;;;3.80;2.40;;;21.40;99.90;;;;;;4950499;28;20039;-36
2022/06/08 09:13:48;;;;;;;4.05;2.20;;;21.30;99.90;;;;;;4951128;28;20034;-37
2022/06/08 09:16:37;;;;;;;2.53;1.70;;;21.40;99.90;;;;;;4949526;28;20082;-37
2022/06/08 09:19:36;;;;;;;4.13;1.88;;;21.40;99.90;;;;;;4951193;28;20391;-36
2022/06/08 09:22:04;;;;;;;3.75;2.40;;;21.50;99.90;;;;;;4949906;28;20130;-38
2022/06/08 09:24:41;;;;;;;3.78;2.63;;;21.50;99.90;;;;;;4950670;29;20370;-36
2022/06/08 09:27:33;;;;;;;6.35;3.33;;;21.50;99.90;;;;;;4950557;28;20045;-37
2022/06/08 09:30:08;;;;;;;2.58;2.20;;;21.60;99.90;;;;;;4949669;28;20328;-38
2022/06/08 09:32:45;;;;;;;2.55;2.08;;;21.50;99.90;;;;;;4940449;29;20046;-37
2022/06/08 09:35:34;;;;;;;2.70;2.25;;;21.50;99.90;;;;;;4950603;29;20058;-36
2022/06/08 09:38:02;;;;;;;4.88;2.58;;;21.50;99.90;;;;;;4941942;29;20031;-36
2022/06/08 09:40:41;;;;;;;3.78;2.70;;;21.50;99.90;;;;;;4949409;28;20031;-35
2022/06/08 09:43:12;;;;;;;5.10;2.00;;;21.40;99.90;;;;;;4949625;28;20039;-35
2022/06/08 09:45:46;;;;;;;2.83;1.80;;;21.30;99.90;;;;;;4949955;29;20491;-37
2022/06/08 09:51:50;;;;;;;4.65;1.83;;;21.30;99.90;;;;;;4948906;28;20046;-37
2022/06/08 09:54:27;;;;;;;2.72;1.95;;;21.40;99.90;;;;;;4948789;28;20153;-36
2022/06/08 09:57:28;;;;;;;5.38;3.03;;;21.40;99.90;;;;;;4950382;29;20486;-37
2022/06/08 10:00:32;;;;;;;3.72;2.53;;;21.40;99.90;;;;;;4942325;29;20078;-36
2022/06/08 10:03:33;;;;;;;5.30;2.00;;;21.40;99.90;;;;;;4949687;29;20070;-36
2022/06/08 10:06:14;;;;;;;3.05;1.60;;;21.30;99.90;;;;;;4949437;28;20479;-36
2022/06/08 10:09:31;;;;;;;2.10;1.42;;;21.40;99.90;;;;;;4949839;28;20055;-36
2022/06/08 10:12:18;;;;;;;4.05;2.47;;;21.40;99.90;;;;;;4929632;29;20586;-36
2022/06/08 10:14:55;;;;;;;3.50;1.83;;;21.50;99.90;;;;;;4949492;28;20483;-36
2022/06/08 10:17:32;;;;;;;3.47;2.13;;;21.60;99.90;;;;;;4949323;28;20048;-37
2022/06/08 10:20:04;;;;;;;3.58;2.00;;;21.70;99.90;;;;;;4949591;28;20039;-37
2022/06/08 10:22:35;;;;;;;;;;;21.80;99.90;;;;;;4949460;28;20070;-35
2022/06/08 10:25:04;;;;;;;3.35;2.30;;;21.80;99.90;;;;;;4949688;28;19910;-38
2022/06/08 10:27:44;;;;;;;2.33;1.67;;;21.70;99.90;;;;;;4948204;29;20031;-36
2022/06/08 10:30:23;;;;;;;2.80;1.60;;;21.60;99.90;;;;;;4949581;29;20023;-38
2022/06/08 10:33:42;;;;;;;3.95;2.20;;;21.60;99.90;;;;;;4948836;28;20431;-36
2022/06/08 10:36:10;;;;;;;3.42;1.90;;;21.60;99.90;;;;;;4927764;29;20043;-40
2022/06/08 10:38:38;;;;;;;2.45;1.40;;;21.50;99.90;;;;;;4945027;29;20031;-35
2022/06/08 10:44:36;;;;;;;3.83;1.70;;;21.40;99.90;;;;;;4928473;29;20416;-36
2022/06/08 10:47:16;;;;;;;3.47;1.70;;;21.40;99.90;;;;;;4948332;28;20085;-36
2022/06/08 10:49:45;;;;;;;2.63;1.52;;;21.40;99.90;;;;;;4946264;29;20415;-36
2022/06/08 10:52:23;;;;;;;3.30;1.70;;;21.40;99.90;;;;;;4948781;28;20031;-36
2022/06/08 10:54:53;;;;;;;4.00;1.55;;;21.40;99.90;;;;;;4948486;29;20043;-37
2022/06/08 10:57:41;;;;;;;3.35;1.63;;;21.40;99.90;;;;;;4949257;28;20039;-37
2022/06/08 11:00:19;;;;;;;3.17;1.70;;;21.30;99.90;;;;;;4949685;28;20153;-34
2022/06/08 11:03:00;;;;;;;5.97;1.60;;;21.10;99.90;;;;;;4948325;28;20066;-37
2022/06/08 11:05:38;;;;;;;3.75;1.38;;;20.90;99.90;;;;;;4948177;28;20109;-36
2022/06/08 11:08:07;;;;;;;3.60;1.73;;;20.60;99.90;;;;;;4948704;29;20026;-37
2022/06/08 11:10:42;;;;;;;4.40;1.48;;;20.40;99.90;;;;;;4948505;29;20024;-37
2022/06/08 11:13:29;;;;;;;4.22;1.80;;;20.20;99.90;;;;;;4949390;29;20059;-36
2022/06/08 11:16:22;;;;;;;3.53;1.58;;;20.00;99.90;;;;;;4937718;29;20027;-37
2022/06/08 11:18:49;;;;;;;5.55;1.80;;;19.80;99.90;;;;;;4948302;28;20033;-35
2022/06/08 11:21:14;;;;;;;4.43;1.25;;;19.80;99.90;;;;;;4948803;29;20139;-41
2022/06/08 11:23:43;;;;;;;5.55;2.00;;;19.70;99.90;;;;;;4947363;29;20039;-36
2022/06/08 11:26:14;;;;;;;5.20;1.63;;;19.70;99.90;;;;;;4948366;28;20463;-37
2022/06/08 11:28:44;;;;;;;4.25;1.35;;;19.60;99.90;;;;;;4947457;28;20509;-36
2022/06/08 11:31:33;;;;;;;4.95;1.40;;;19.60;99.90;;;;;;4948277;28;20038;-37
2022/06/08 11:34:19;;;;;;;7.35;2.15;;;19.70;99.90;;;;;;4948181;29;20034;-36
2022/06/08 11:36:50;;;;;;;4.05;1.48;;;19.70;99.90;;;;;;4947453;28;20816;-37
2022/06/08 11:39:23;;;;;;;3.23;1.60;;;19.80;99.90;;;;;;4948210;29;20479;-35
2022/06/08 11:42:27;;;;;;;4.70;1.90;;;19.80;99.90;;;;;;4948655;28;20113;-35
2022/06/08 11:45:06;;;;;;;4.20;1.65;;;19.90;99.90;;;;;;4947463;28;20495;-37
2022/06/08 11:47:52;;;;;;;6.03;2.22;;;19.90;99.90;;;;;;4947536;28;20511;-43
2022/06/08 11:50:24;;;;;;;3.15;1.90;;;20.00;99.90;;;;;;4947260;28;20074;-36
2022/06/08 11:53:05;;;;;;;4.82;2.03;;;20.00;99.90;;;;;;4948235;29;20066;-35
2022/06/08 11:55:36;;;;;;;3.15;1.70;;;19.90;99.90;;;;;;4947322;28;20024;-38
2022/06/08 11:58:08;;;;;;;2.28;1.40;;;19.80;99.90;;;;;;4947441;29;20028;-36
2022/06/08 12:00:37;;;;;;;2.95;2.10;;;19.70;99.90;;;;;;4947692;28;20035;-37
2022/06/08 12:03:17;;;;;;;5.03;2.17;;;19.60;99.90;;;;;;4948139;29;20082;-36
2022/06/08 12:05:51;;;;;;;3.35;1.60;;;19.60;99.90;;;;;;4946822;28;20024;-35
2022/06/08 12:08:28;;;;;;;3.55;1.67;;;19.50;99.90;;;;;;4947873;28;20031;-36
2022/06/08 12:10:54;;;;;;;2.92;1.30;;;19.30;99.90;;;;;;4947457;28;20033;-36
2022/06/08 12:13:22;;;;;;;2.70;1.40;;;19.20;99.90;;;;;;4948126;28;20051;-36
2022/06/08 12:15:53;;;;;;;4.55;1.50;;;19.20;99.90;;;;;;4947964;28;20031;-38
2022/06/08 12:18:27;;;;;;;4.72;1.42;;;19.10;99.90;;;;;;4946927;28;20042;-36
2022/06/08 12:21:19;;;;;;;2.50;1.42;;;19.10;99.90;;;;;;4947726;28;20043;-34
2022/06/08 12:23:59;;;;;;;2.33;1.52;;;19.10;99.90;;;;;;4947786;28;20086;-35
2022/06/08 12:26:27;;;;;;;2.42;1.45;;;19.00;99.90;;;;;;4946642;29;20031;-36
2022/06/08 12:29:13;;;;;;;2.90;1.90;;;18.90;99.90;;;;;;4948441;28;20117;-36
2022/06/08 12:31:39;;;;;;;4.50;2.00;;;18.90;99.90;;;;;;4947311;29;20102;-36
2022/06/08 12:34:24;;;;;;;4.72;1.52;;;18.80;99.90;;;;;;4947210;28;20496;-35
2022/06/08 12:36:49;;;;;;;4.43;1.60;;;18.80;99.90;;;;;;4947970;28;20066;-35
2022/06/08 12:39:18;;;;;;;2.90;1.35;;;18.80;99.90;;;;;;4947143;29;20162;-36
2022/06/08 12:41:54;;;;;;;4.25;1.88;;;18.90;99.90;;;;;;4946876;28;20031;-36
2022/06/08 12:44:26;;;;;;;3.97;1.60;;;18.90;99.90;;;;;;4947729;28;20039;-35
2022/06/08 12:47:01;;;;;;;4.22;1.67;;;18.90;99.90;;;;;;4947336;28;20511;-35
2022/06/08 12:49:42;;;;;;;4.15;1.35;;;19.00;99.90;;;;;;4946884;28;20383;-36
2022/06/08 12:52:29;;;;;;;4.85;1.60;;;19.10;99.90;;;;;;4947293;28;20030;-34
2022/06/08 12:54:55;;;;;;;4.72;1.90;;;19.10;99.90;;;;;;4947027;28;20519;-35
2022/06/08 12:57:24;;;;;;;4.43;1.90;;;19.10;99.90;;;;;;4947339;28;20110;-35
2022/06/08 12:59:52;;;;;;;4.63;1.55;;;19.00;99.90;;;;;;4947799;28;20451;-35
2022/06/08 13:02:33;;;;;;;4.60;1.63;;;19.00;99.90;;;;;;4946498;29;20475;-35
2022/06/08 13:05:01;;;;;;;4.38;1.45;;;19.00;99.90;;;;;;4947350;28;20030;-35
2022/06/08 13:07:29;;;;;;;3.10;1.33;;;19.00;99.90;;;;;;4945757;29;20035;-35
2022/06/08 13:09:55;;;;;;;2.03;1.48;;;19.10;99.90;;;;;;4947500;28;20031;-36
2022/06/08 13:12:25;;;;;;;3.60;1.60;;;19.10;99.90;;;;;;4947176;28;20449;-36
2022/06/08 13:14:51;;;;;;;2.30;1.30;;;19.00;99.90;;;;;;4946513;29;20055;-34